Latest Weather Observations for Amberley

IDQ60901

Issued at 6:45 am EST Tuesday 29 July 2014 (issued every 10 minutes, with the page automatically refreshed every 10 minutes)

About weather observations | Map of Brisbane area stations | Latest observations for Brisbane area | Other Formats
Station Details ID: 040004 Name: AMBERLEY AMO Lat: -27.63 Lon: 152.71 Height: 24.2 m
Data from the previous 72 hours. | See also: Recent months at Amberley
Date/Time
EST
Tmp

°C
App
Tmp
°C
Dew
Point
°C
Rel
Hum
%
Delta-T

°C
Wind Press
QNH
hPa
Press
MSL
hPa
Rain
since
9 am
mm
Dir
 
Spd
km/h
Gust
km/h
Spd
kts
Gust
kts
29/06:30am 0.6 - - - - SSW 0 0 0 0 1022.1 - 0.0
29/06:00am 0.8 -1.2 0.0 94 0.3 SSW 0 0 0 0 1021.9 1022.0 0.0
29/05:30am 0.6 - - - - CALM 0 0 0 0 1021.7 - 0.0
29/05:00am 0.8 -1.6 -0.3 92 0.4 SSW 2 7 1 4 1021.3 - 0.0
29/04:30am 1.7 -1.9 0.3 90 0.5 SSW 9 11 5 6 1021.1 - 0.0
29/04:00am 1.1 -0.8 0.3 94 0.3 CALM 0 0 0 0 1020.7 - 0.0
29/03:50am 1.0 -1.0 0.2 94 0.3 CALM 0 0 0 0 1020.7 - 0.0
29/03:30am 1.2 -0.8 0.1 92 0.4 CALM 0 0 0 0 1020.8 - 0.0
29/03:25am 0.8 -1.2 0.2 96 0.2 CALM 0 0 0 0 1020.9 - 0.0
29/03:00am 1.7 -0.1 1.2 96 0.2 CALM 0 0 0 0 1021.0 1021.1 0.0
29/02:30am 1.6 -0.2 1.1 96 0.2 CALM 0 0 0 0 1021.1 - 0.0
29/02:00am 2.2 -0.4 1.1 92 0.4 WSW 4 7 2 4 1021.0 - 0.0
29/01:30am 2.9 0.4 1.6 91 0.5 WSW 4 7 2 4 1021.1 - 0.0
29/01:00am 2.9 1.2 1.9 93 0.4 CALM 0 0 0 0 1021.4 - 0.0
29/12:30am 3.0 1.3 2.0 93 0.4 CALM 0 0 0 0 1021.7 - 0.0
29/12:00am 4.2 2.6 2.4 88 0.7 WSW 0 0 0 0 1022.0 1022.1 0.0
 
Date/Time
EST
Tmp

°C
App
Tmp
°C
Dew
Point
°C
Rel
Hum
%
Delta-T

°C
Wind Press
QNH
hPa
Press
MSL
hPa
Rain
since
9 am
mm
Dir
 
Spd
km/h
Gust
km/h
Spd
kts
Gust
kts
28/11:30pm 4.3 2.7 2.6 89 0.7 CALM 0 0 0 0 1022.2 - 0.0
28/11:00pm 4.9 3.3 2.7 86 0.9 CALM 0 0 0 0 1022.3 - 0.0
28/10:30pm 6.0 4.6 3.4 83 1.1 CALM 0 0 0 0 1022.3 - 0.0
28/10:00pm 6.2 4.7 2.8 79 1.4 CALM 0 0 0 0 1022.2 - 0.0
28/09:30pm 7.0 4.1 2.6 73 1.8 NW 7 9 4 5 1022.1 - 0.0
28/09:00pm 5.5 3.9 2.5 81 1.2 CALM 0 0 0 0 1021.9 1022.0 0.0
28/08:30pm 8.1 6.2 2.9 70 2.2 W 2 6 1 3 1021.7 - 0.0
28/08:00pm 8.7 6.8 2.8 66 2.5 W 2 6 1 3 1021.5 - 0.0
28/07:30pm 10.4 7.6 3.0 60 3.2 NNW 7 7 4 4 1021.2 - 0.0
28/07:00pm 11.4 8.4 2.3 53 3.9 NNW 7 7 4 4 1020.9 - 0.0
28/06:30pm 12.8 9.9 2.5 49 4.5 NNW 7 7 4 4 1020.7 - 0.0
28/06:00pm 14.3 11.1 1.0 40 5.7 NNW 7 7 4 4 1020.4 1020.5 0.0
28/05:30pm 17.4 13.6 -0.8 29 7.7 NW 9 9 5 5 1020.2 - 0.0
28/05:00pm 20.3 16.0 -1.7 22 9.4 W 11 13 6 7 1020.0 - 0.0
28/04:30pm 22.0 15.9 -3.6 18 10.7 NW 19 22 10 12 1019.8 - 0.0
28/04:00pm 22.7 17.0 -3.8 17 11.1 NW 17 24 9 13 1019.6 - 0.0
28/03:30pm 23.0 17.3 -3.5 17 11.2 WNW 17 28 9 15 1019.6 - 0.0
28/03:00pm 23.2 18.0 -2.6 18 11.1 W 15 26 8 14 1019.9 1020.0 0.0
28/02:30pm 23.5 18.1 -1.0 19 10.9 WNW 17 26 9 14 1020.1 - 0.0
28/02:00pm 22.7 17.8 2.3 26 9.6 W 17 28 9 15 1020.4 - 0.0
28/01:30pm 22.5 19.0 3.3 28 9.2 W 11 15 6 8 1020.8 - 0.0
28/01:00pm 22.1 17.5 3.6 29 8.9 WNW 17 24 9 13 1021.3 - 0.0
28/12:30pm 21.3 16.1 3.5 31 8.5 WNW 20 30 11 16 1021.9 - 0.0
28/12:00pm 21.0 17.0 5.1 35 7.8 NNW 15 26 8 14 1022.4 1022.5 0.0
28/11:30am 20.5 16.0 7.1 42 6.8 NW 20 26 11 14 1023.0 - 0.0
28/11:00am 19.6 16.5 7.1 44 6.3 WNW 13 22 7 12 1023.7 - 0.0
28/10:30am 18.3 15.8 6.6 46 5.8 WNW 9 13 5 7 1024.4 - 0.0
28/10:00am 16.0 13.8 7.8 58 4.1 W 9 15 5 8 1024.8 - 0.0
28/09:30am 13.7 12.6 8.5 71 2.6 SW 4 9 2 5 1025.0 - 0.0
28/09:00am 11.4 9.7 8.3 81 1.5 SSW 7 9 4 5 1024.8 1024.8 1.2
28/08:30am 9.4 7.9 7.0 85 1.1 SSW 4 7 2 4 1024.7 - 1.2
28/08:00am 7.2 5.6 6.3 94 0.4 SSW 4 7 2 4 1024.5 - 1.2
28/07:30am 5.2 4.0 4.7 97 0.2 CALM 0 0 0 0 1024.0 - 1.2
28/07:13am 4.1 2.8 4.1 100 0.0 CALM 0 0 0 0 1023.8 - 1.2
28/07:00am 3.4 1.9 2.9 97 0.2 CALM 0 0 0 0 1023.9 - 1.2
28/06:30am 3.6 2.2 3.4 99 0.1 CALM 0 0 0 0 1023.5 - 1.2
28/06:00am 3.4 1.9 3.2 99 0.1 CALM 0 0 0 0 1023.4 1023.5 1.2
28/05:56am 3.4 1.9 3.2 99 0.1 CALM 0 0 0 0 1023.4 - 1.2
28/05:30am 3.7 2.2 3.2 97 0.2 CALM 0 0 0 0 1023.4 - 1.2
28/05:00am 3.7 2.2 3.2 97 0.2 CALM 0 0 0 0 1023.5 - 1.2
28/04:52am 4.2 2.9 4.0 99 0.1 CALM 0 0 0 0 1023.4 - 1.2
28/04:30am 4.5 3.2 4.0 97 0.2 CALM 0 0 0 0 1023.3 - 1.2
28/04:02am 4.7 3.5 4.5 99 0.1 CALM 0 0 0 0 1023.2 - 1.2
28/04:00am 4.6 3.4 4.4 99 0.1 CALM 0 0 0 0 1023.2 - 1.2
28/03:30am 5.4 4.3 4.9 97 0.2 CALM 0 0 0 0 1023.3 - 1.2
28/03:22am 5.3 4.2 5.1 99 0.1 CALM 0 0 0 0 1023.3 - 1.2
28/03:10am 5.5 4.4 5.0 97 0.2 CALM 0 0 0 0 1023.2 - 1.2
28/03:00am 5.7 4.6 5.0 95 0.3 CALM 0 0 0 0 1023.2 1023.3 1.2
28/02:51am 5.7 4.6 5.2 97 0.2 CALM 0 0 0 0 1023.1 - 1.2
28/02:30am 6.1 5.1 5.4 95 0.3 CALM 0 0 0 0 1023.0 - 1.2
28/02:00am 5.5 4.4 5.0 97 0.2 CALM 0 0 0 0 1023.2 - 1.2
28/01:58am 5.6 4.5 4.9 95 0.3 CALM 0 0 0 0 1023.2 - 1.2
28/01:36am 6.1 5.1 5.6 97 0.2 CALM 0 0 0 0 1023.3 - 1.2
28/01:31am 6.0 5.0 5.8 99 0.1 CALM 0 0 0 0 1023.3 - 1.2
28/01:30am 6.0 5.0 5.8 99 0.1 CALM 0 0 0 0 1023.3 - 1.2
28/01:00am 6.0 4.6 5.5 97 0.2 SSW 2 9 1 5 1023.4 - 1.2
28/12:48am 7.0 6.3 6.8 99 0.1 CALM 0 0 0 0 1023.6 - 1.2
28/12:30am 7.6 7.0 7.2 97 0.2 CALM 0 0 0 0 1023.6 - 1.2
28/12:00am 7.9 7.3 7.3 96 0.3 CALM 0 0 0 0 1023.6 1023.7 1.2
 
Date/Time
EST
Tmp

°C
App
Tmp
°C
Dew
Point
°C
Rel
Hum
%
Delta-T

°C
Wind Press
QNH
hPa
Press
MSL
hPa
Rain
since
9 am
mm
Dir
 
Spd
km/h
Gust
km/h
Spd
kts
Gust
kts
27/11:30pm 8.3 7.7 7.4 94 0.4 CALM 0 0 0 0 1023.6 - 1.2
27/11:00pm 8.1 7.4 6.8 91 0.6 CALM 0 0 0 0 1023.8 - 1.2
27/10:30pm 9.8 9.3 7.9 88 0.9 CALM 0 0 0 0 1023.7 - 1.2
27/10:00pm 10.8 10.5 8.6 86 1.1 CALM 0 0 0 0 1023.7 - 1.2
27/09:30pm 11.3 11.0 8.7 84 1.3 CALM 0 0 0 0 1023.6 - 1.2
27/09:00pm 12.1 10.7 8.9 81 1.6 E 6 7 3 4 1023.7 1023.8 1.2
27/08:30pm 13.1 10.4 9.1 77 2.0 SSW 13 15 7 8 1023.6 - 1.2
27/08:00pm 15.8 13.6 9.2 65 3.4 ENE 11 13 6 7 1023.1 - 1.2
27/07:30pm 16.3 13.3 9.1 62 3.7 ENE 15 17 8 9 1022.7 - 1.2
27/07:00pm 16.8 13.8 9.3 61 3.9 ENE 15 19 8 10 1022.5 - 1.2
27/06:30pm 17.3 13.4 8.5 56 4.5 ENE 19 22 10 12 1022.1 - 1.2
27/06:00pm 15.2 13.0 6.0 54 4.4 NE 7 13 4 7 1021.7 1021.8 1.2
27/05:30pm 18.9 17.5 3.8 36 7.1 CALM 0 0 0 0 1021.3 - 1.2
27/05:00pm 21.2 19.9 3.9 32 8.3 CALM 0 0 0 0 1021.1 - 1.2
27/04:30pm 22.8 20.0 2.2 26 9.7 NNW 6 7 3 4 1020.7 - 1.2
27/04:00pm 23.1 20.2 1.7 24 10.0 WNW 6 13 3 7 1020.5 - 1.2
27/03:30pm 23.4 21.0 2.3 25 10.0 SSW 4 9 2 5 1020.6 - 1.2
27/03:00pm 23.5 19.3 1.4 23 10.3 SSE 13 19 7 10 1020.6 1020.7 1.2
27/02:30pm 23.5 19.8 2.1 24 10.1 SSW 11 19 6 10 1020.6 - 1.2
27/02:00pm 23.4 19.3 2.3 25 10.0 WSW 13 19 7 10 1020.8 - 1.2
27/01:30pm 22.9 18.6 3.0 27 9.5 SSW 15 24 8 13 1021.1 - 1.2
27/01:00pm 23.3 17.9 1.3 23 10.2 S 19 28 10 15 1021.2 - 1.2
27/12:30pm 22.1 16.9 2.6 27 9.2 SSW 19 26 10 14 1021.8 - 1.2
27/12:00pm 21.8 17.5 3.0 29 8.9 SW 15 24 8 13 1022.3 1022.4 1.2
27/11:30am 20.9 17.5 5.8 37 7.5 SSW 13 22 7 12 1023.1 - 1.2
27/11:00am 20.1 17.1 9.3 49 5.7 SSW 15 24 8 13 1023.7 - 0.0
27/10:30am 18.5 16.7 12.0 66 3.6 WSW 13 17 7 9 1024.1 - 0.0
27/10:00am 16.2 15.5 13.3 83 1.6 SW 9 13 5 7 1024.6 - 0.0
27/09:30am 14.5 13.7 13.0 91 0.8 SW 9 13 5 7 1024.6 - 0.0
27/09:26am 14.0 13.6 12.9 93 0.6 SW 7 11 4 6 1024.6 - 0.0
27/09:00am 12.9 13.3 12.5 97 0.2 SW 2 9 1 5 1024.4 1024.4 1.0
27/08:49am 13.2 13.3 12.8 97 0.2 SW 4 9 2 5 1024.3 - 1.0
27/08:30am 11.7 10.8 11.3 97 0.2 SSW 7 13 4 7 1024.1 - 1.0
27/08:00am 10.5 10.5 9.9 96 0.3 CALM 0 0 0 0 1024.1 - 1.0
27/07:30am 9.4 9.2 9.0 97 0.2 CALM 0 0 0 0 1023.8 - 1.0
27/07:00am 8.3 7.9 8.1 99 0.1 CALM 0 0 0 0 1023.5 - 1.0
27/06:30am 9.1 8.9 8.9 99 0.1 CALM 0 0 0 0 1023.4 - 1.0
27/06:00am 9.6 9.1 9.4 99 0.1 S 2 7 1 4 1023.1 1023.2 1.0
27/05:30am 9.9 9.9 9.7 99 0.1 CALM 0 0 0 0 1022.8 - 1.0
27/05:00am 10.6 9.7 10.6 100 0.0 S 6 7 3 4 1022.7 - 1.0
27/04:30am 11.5 10.6 11.3 99 0.1 S 7 9 4 5 1022.6 - 1.0
27/04:00am 11.7 10.8 11.5 99 0.1 S 7 9 4 5 1022.5 - 0.8
27/03:30am 11.8 11.0 11.6 99 0.1 SW 7 11 4 6 1022.8 - 0.8
27/03:00am 11.3 11.6 10.9 97 0.2 CALM 0 0 0 0 1022.9 1023.0 0.8
27/02:30am 10.8 11.0 10.4 97 0.2 CALM 0 0 0 0 1023.1 - 0.8
27/02:00am 11.4 10.5 11.2 99 0.1 SW 7 9 4 5 1023.1 - 0.8
27/01:30am 10.9 9.7 10.3 96 0.3 SW 7 11 4 6 1023.2 - 0.8
27/01:18am 10.3 10.4 10.1 99 0.1 CALM 0 0 0 0 1023.4 - 0.8
27/01:00am 10.4 10.4 9.8 96 0.3 CALM 0 0 0 0 1023.3 - 0.8
27/12:41am 10.7 10.9 10.5 99 0.1 CALM 0 0 0 0 1023.5 - 0.8
27/12:30am 11.1 11.3 10.7 97 0.2 CALM 0 0 0 0 1023.5 - 0.8
27/12:00am 11.9 11.2 11.5 97 0.2 SW 6 9 3 5 1023.7 1023.8 0.8
 
Date/Time
EST
Tmp

°C
App
Tmp
°C
Dew
Point
°C
Rel
Hum
%
Delta-T

°C
Wind Press
QNH
hPa
Press
MSL
hPa
Rain
since
9 am
mm
Dir
 
Spd
km/h
Gust
km/h
Spd
kts
Gust
kts
26/11:44pm 11.9 12.4 11.7 99 0.1 CALM 0 6 0 3 1023.7 - 0.8
26/11:30pm 12.6 11.9 12.0 96 0.3 SW 7 7 4 4 1023.7 - 0.8
26/11:00pm 13.6 13.4 13.1 97 0.3 SW 6 9 3 5 1024.0 - 0.8
26/10:30pm 14.2 14.3 13.8 97 0.2 SW 6 7 3 4 1024.1 - 0.8
26/10:00pm 14.2 15.4 13.8 97 0.2 CALM 0 0 0 0 1024.1 - 0.8
26/09:30pm 14.9 16.3 14.5 97 0.2 CALM 0 0 0 0 1024.3 - 0.8
26/09:00pm 15.2 16.7 14.7 97 0.3 CALM 0 0 0 0 1024.4 1024.4 0.8
26/08:41pm 15.1 16.6 14.6 97 0.3 CALM 0 0 0 0 1024.5 - 0.8
26/08:30pm 15.3 16.8 14.6 96 0.4 CALM 0 0 0 0 1024.6 - 0.8
26/08:05pm 15.5 17.1 15.0 97 0.3 CALM 0 0 0 0 1024.4 - 0.8
26/08:00pm 15.5 17.1 15.0 97 0.3 CALM 0 0 0 0 1024.5 - 0.8
26/07:55pm 15.4 17.0 14.9 97 0.3 CALM 0 0 0 0 1024.5 - 0.8
26/07:31pm 15.5 16.0 15.0 97 0.3 SW 6 7 3 4 1024.4 - 0.8
26/07:30pm 15.5 16.1 15.2 98 0.2 SW 6 7 3 4 1024.4 - 0.8
26/07:20pm 15.6 17.3 15.1 97 0.3 CALM 0 6 0 3 1024.3 - 0.8
26/07:00pm 15.8 17.5 15.1 96 0.4 CALM 0 0 0 0 1024.4 - 0.8
26/06:30pm 15.9 17.5 15.0 94 0.5 CALM 0 0 0 0 1024.1 - 0.8
26/06:00pm 16.2 17.9 15.3 94 0.5 CALM 0 0 0 0 1023.8 1023.9 0.8
26/05:30pm 16.4 17.8 15.5 94 0.5 NE 2 7 1 4 1023.4 - 0.8
26/05:00pm 16.6 18.4 15.6 94 0.6 CALM 0 7 0 4 1022.9 - 0.8
26/04:30pm 16.6 16.9 15.9 96 0.4 NE 9 11 5 6 1023.1 - 0.8
26/04:23pm 16.8 17.0 15.8 94 0.6 NNE 9 9 5 5 1023.0 - 0.8
26/04:12pm 16.9 17.0 15.5 91 0.8 NW 9 13 5 7 1023.3 - 0.8
26/04:03pm 17.1 16.5 15.6 91 0.9 W 13 17 7 9 1023.7 - 0.8
26/04:00pm 17.2 16.2 15.7 91 0.9 W 15 17 8 9 1023.8 - 0.8
26/03:47pm 18.0 13.6 15.1 83 1.7 WSW 32 39 17 21 1023.7 - 0.0
26/03:30pm 21.4 20.0 12.3 56 5.1 NW 11 15 6 8 1023.1 - 0.0
26/03:00pm 21.7 20.0 12.5 56 5.2 NNW 13 17 7 9 1022.9 1023.0 0.0
26/02:30pm 21.5 19.7 12.2 55 5.2 NNW 13 19 7 10 1023.0 - 0.0
26/02:00pm 21.3 19.6 12.4 57 5.0 NNW 13 19 7 10 1023.3 - 0.0
26/01:30pm 21.5 19.9 12.7 57 5.0 NNW 13 19 7 10 1023.4 - 0.0
26/01:00pm 21.2 20.5 13.1 60 4.6 WNW 9 15 5 8 1023.9 - 0.0
26/12:30pm 19.9 19.8 13.4 66 3.7 W 6 11 3 6 1024.8 - 0.0
26/12:00pm 19.2 19.5 13.4 69 3.3 W 4 11 2 6 1025.1 1025.1 0.0
26/11:30am 18.7 19.4 13.4 71 3.0 SW 2 7 1 4 1026.0 - 0.0
26/11:00am 17.8 17.6 13.7 77 2.3 SW 7 9 4 5 1026.5 - 0.0
26/10:30am 17.3 18.0 13.4 78 2.2 SSE 2 7 1 4 1027.0 - 0.0
26/10:00am 16.2 16.5 13.3 83 1.6 NE 4 7 2 4 1027.1 - 0.0
26/09:30am 15.1 15.6 12.9 87 1.2 E 2 7 1 4 1027.6 - 0.0
26/09:00am 14.3 15.2 12.8 91 0.8 CALM 0 0 0 0 1027.7 1027.7 0.0
26/08:30am 12.9 13.5 12.0 94 0.5 CALM 0 0 0 0 1027.5 - 0.0
26/08:00am 11.4 11.7 10.8 96 0.3 CALM 0 0 0 0 1027.3 - 0.0
26/07:30am 10.1 10.0 9.5 96 0.3 CALM 0 0 0 0 1027.1 - 0.0
26/07:00am 10.1 8.6 9.3 95 0.4 WSW 7 7 4 4 1026.9 - 0.0
26/06:54am 9.9 9.0 9.3 96 0.3 WSW 4 7 2 4 1027.0 - 0.0

Latest Capital City Observations: Canberra | Sydney | Melbourne | Brisbane | Adelaide | Perth | Hobart | Darwin

Other Formats:

Comma delimited format used in spreadsheet applications
http://www.bom.gov.au/fwo/IDQ60901/IDQ60901.94568.axf

JavaScript Object Notation format (JSON) in row-major order
http://www.bom.gov.au/fwo/IDQ60901/IDQ60901.94568.json